.
WxDataArchive / Data Records for 2008-05-13
2008-05-12 May 2008 2008-05-14

Data Records for Tuesday, 13 May 2008

Time	Temp	Chill	HIndex	Humid	Dewpt	 Wind 	HiWind	WindDir	Rain 	Barom 
-----	----	-----	------	-----	-----	------	------	-------	-----	----- 
00:00	51.3	51.3	51.3	81	45.7	1	3	90	0.00	30.026 
00:05	51.3	51.3	51.3	82	46.0	1	3	90	0.00	30.026 
00:10	51.3	51.3	51.3	82	46.0	1	4	90	0.00	30.027 
00:15	51.1	51.1	51.1	83	46.1	0	2	90	0.00	30.029 
00:20	51.1	51.1	51.1	83	46.1	0	1	90	0.00	30.030 
00:25	51.0	51.0	51.0	84	46.3	1	2	90	0.00	30.030 
00:30	51.0	51.0	51.0	84	46.3	0	2	90	0.00	30.031 
00:35	50.8	50.8	50.8	84	46.1	1	3	90	0.00	30.031 
00:40	50.7	50.7	50.7	85	46.4	1	2	90	0.00	30.032 
00:45	50.5	50.5	50.5	85	46.2	0	2	90	0.00	30.035 
00:50	50.4	50.4	50.4	86	46.4	0	2	90	0.00	30.037 
00:55	50.1	50.1	50.1	86	46.1	0	2	90	0.00	30.039 
01:00	49.9	49.9	49.9	87	46.2	0	2	90	0.00	30.041 
01:05	49.8	49.8	49.8	87	46.1	0	1	90	0.00	30.039 
01:10	49.5	49.5	49.5	88	46.1	0	0	---	0.00	30.040 
01:15	49.2	49.2	49.2	88	45.8	0	1	90	0.00	30.038 
01:20	48.9	48.9	48.9	88	45.5	0	0	---	0.00	30.039 
01:25	48.8	48.8	48.8	89	45.7	0	1	90	0.00	30.037 
01:30	48.6	48.6	48.6	89	45.5	0	1	90	0.00	30.035 
01:35	48.3	48.3	48.3	90	45.5	0	1	90	0.00	30.031 
01:40	48.2	48.2	48.2	90	45.4	0	1	90	0.00	30.030 
01:45	48.0	48.0	48.0	91	45.5	0	1	90	0.00	30.029 
01:50	47.9	47.9	47.9	91	45.4	0	1	90	0.00	30.028 
01:55	47.7	47.7	47.7	91	45.2	0	0	---	0.00	30.027 
02:00	47.4	47.4	47.4	91	44.9	0	0	---	0.00	30.024 
02:05	47.1	47.1	47.1	91	44.6	0	0	---	0.00	30.022 
02:10	47.0	47.0	47.0	91	44.5	0	0	---	0.00	30.020 
02:15	46.8	46.8	46.8	91	44.3	0	0	---	0.00	30.022 
02:20	46.7	46.7	46.7	91	44.2	0	0	---	0.00	30.024 
02:25	46.4	46.4	46.4	92	44.2	0	0	---	0.00	30.026 
02:30	46.2	46.2	46.2	92	44.0	0	0	---	0.00	30.028 
02:35	46.0	46.0	46.0	92	43.8	0	0	---	0.00	30.027 
02:40	45.7	45.7	45.7	92	43.5	0	0	---	0.00	30.027 
02:45	45.4	45.4	45.4	92	43.2	0	0	---	0.00	30.029 
02:50	45.2	45.2	45.2	92	43.0	0	0	---	0.00	30.029 
02:55	45.1	45.1	45.1	92	42.9	0	0	---	0.00	30.030 
03:00	44.9	44.9	44.9	92	42.7	0	0	---	0.00	30.030 
03:05	44.6	44.6	44.6	92	42.4	0	0	---	0.00	30.028 
03:10	44.3	44.3	44.3	92	42.1	0	0	---	0.00	30.030 
03:15	44.1	44.1	44.1	92	41.9	0	0	---	0.00	30.031 
03:20	43.9	43.9	43.9	93	42.0	0	0	---	0.00	30.031 
03:25	43.8	43.8	43.8	93	41.9	0	0	---	0.00	30.030 
03:30	43.5	43.5	43.5	93	41.6	0	0	---	0.00	30.032 
03:35	43.3	43.3	43.3	93	41.4	0	0	---	0.00	30.033 
03:40	43.2	43.2	43.2	93	41.3	0	0	---	0.00	30.032 
03:45	43.1	43.1	43.1	93	41.2	0	0	---	0.00	30.032 
03:50	42.9	42.9	42.9	93	41.0	0	0	---	0.00	30.032 
03:55	42.6	42.6	42.6	93	40.7	0	0	---	0.00	30.032 
04:00	42.5	42.5	42.5	93	40.6	0	0	---	0.00	30.032 
04:05	42.3	42.3	42.3	93	40.4	0	0	---	0.00	30.034 
04:10	42.3	42.3	42.3	94	40.7	0	0	---	0.00	30.037 
04:15	42.2	42.2	42.2	94	40.6	0	0	---	0.00	30.035 
04:20	42.2	42.2	42.2	94	40.6	0	0	---	0.00	30.037 
04:25	42.1	42.1	42.1	94	40.5	0	0	---	0.00	30.038 
04:30	41.9	41.9	41.9	94	40.3	0	0	---	0.00	30.038 
04:35	41.8	41.8	41.8	94	40.2	0	0	---	0.00	30.040 
04:40	41.6	41.6	41.6	94	40.0	0	0	---	0.00	30.041 
04:45	41.5	41.5	41.5	94	39.9	0	0	---	0.00	30.043 
04:50	41.5	41.5	41.5	94	39.9	0	0	---	0.00	30.045 
04:55	41.5	41.5	41.5	94	39.9	0	0	---	0.00	30.046 
05:00	41.5	41.5	41.5	94	39.9	0	1	90	0.00	30.047 
05:05	41.9	41.9	41.9	95	40.6	0	1	90	0.00	30.048 
05:10	42.2	42.2	42.2	95	40.9	0	1	90	0.00	30.049 
05:15	42.5	42.5	42.5	95	41.2	1	2	90	0.00	30.048 
05:20	42.5	42.5	42.5	95	41.2	1	3	90	0.00	30.049 
05:25	42.5	42.5	42.5	95	41.2	1	2	90	0.00	30.049 
05:30	42.5	42.5	42.5	96	41.4	0	2	90	0.00	30.050 
05:35	42.3	42.3	42.3	95	41.0	0	1	90	0.00	30.052 
05:40	42.2	42.2	42.2	96	41.1	0	1	90	0.00	30.056 
05:45	42.2	42.2	42.2	96	41.1	0	1	90	0.00	30.057 
05:50	42.3	42.3	42.3	96	41.2	0	2	90	0.00	30.062 
05:55	42.3	42.3	42.3	96	41.2	0	1	90	0.00	30.065 
06:00	42.5	42.5	42.5	96	41.4	0	0	---	0.00	30.067 
06:05	42.8	42.8	42.8	96	41.7	0	1	90	0.00	30.070 
06:10	42.9	42.9	42.9	96	41.8	0	1	90	0.00	30.074 
06:15	43.3	43.3	43.3	96	42.2	0	2	90	0.00	30.079 
06:20	43.8	43.8	43.8	96	42.7	1	2	90	0.00	30.080 
06:25	43.9	43.9	43.9	96	42.8	0	1	90	0.00	30.081 
06:30	44.1	44.1	44.1	96	43.0	0	2	90	0.00	30.084 
06:35	44.3	44.3	44.3	96	43.2	0	1	90	0.00	30.087 
06:40	44.6	44.6	44.6	96	43.5	1	2	90	0.00	30.085 
06:45	44.8	44.8	44.8	96	43.7	0	1	90	0.00	30.091 
06:50	45.1	45.1	45.1	96	44.0	0	1	90	0.00	30.093 
06:55	45.2	45.2	45.2	97	44.4	0	1	90	0.00	30.096 
07:00	45.4	45.4	45.4	97	44.6	0	1	90	0.00	30.096 
07:05	45.8	45.8	45.8	97	45.0	0	2	90	0.00	30.099 
07:10	46.2	46.2	46.2	97	45.4	0	1	90	0.00	30.100 
07:15	46.8	46.8	46.8	97	46.0	0	1	90	0.00	30.102 
07:20	47.3	47.3	47.3	97	46.5	0	1	90	0.00	30.103 
07:25	47.4	47.4	47.4	97	46.6	0	1	90	0.00	30.107 
07:30	47.7	47.7	47.7	97	46.9	1	2	90	0.00	30.103 
07:35	48.3	48.3	48.3	97	47.5	1	3	90	0.00	30.102 
07:40	48.6	48.6	48.6	97	47.8	1	2	112	0.00	30.099 
07:45	49.4	49.4	49.4	97	48.6	0	2	112	0.00	30.100 
07:50	49.8	49.8	49.8	97	49.0	1	3	112	0.00	30.101 
07:55	50.2	50.2	50.2	96	49.1	1	4	112	0.00	30.102 
08:00	50.7	50.7	50.7	96	49.6	1	4	112	0.00	30.101 
08:05	51.4	51.4	51.4	94	49.7	1	3	112	0.00	30.102 
08:10	51.6	51.6	51.6	92	49.4	2	4	90	0.00	30.100 
08:15	52.3	52.3	52.3	91	49.8	1	4	112	0.00	30.100 
08:20	52.8	52.8	52.8	88	49.3	2	4	112	0.00	30.102 
08:25	53.5	53.5	53.5	85	49.1	2	4	90	0.00	30.103 
08:30	54.2	54.2	54.2	80	48.2	2	6	112	0.00	30.104 
08:35	55.0	55.0	55.0	78	48.3	2	3	112	0.00	30.103 
08:40	55.6	55.6	55.6	76	48.2	2	4	90	0.00	30.102 
08:45	56.2	56.2	56.2	75	48.4	2	4	112	0.00	30.103 
08:50	56.3	56.3	56.3	74	48.1	2	4	112	0.00	30.102 
08:55	56.9	56.9	56.9	72	48.0	2	4	112	0.00	30.101 
09:00	57.2	57.2	57.2	69	47.1	2	6	90	0.00	30.099 
09:05	57.5	57.5	57.5	70	47.8	2	5	112	0.00	30.099 
09:10	58.1	58.1	58.1	69	48.0	1	5	90	0.00	30.097 
09:15	58.3	58.3	58.3	67	47.4	3	6	90	0.00	30.102 
09:20	58.4	58.4	58.4	68	47.9	2	4	112	0.00	30.101 
09:25	58.9	58.9	58.9	66	47.6	2	5	112	0.00	30.100 
09:30	59.2	59.2	59.2	65	47.4	2	5	90	0.00	30.097 
09:35	59.2	59.2	59.2	65	47.4	3	5	90	0.00	30.100 
09:40	59.3	59.3	59.3	64	47.1	3	6	90	0.00	30.102 
09:45	59.6	59.6	59.6	66	48.2	2	4	112	0.00	30.103 
09:50	60.1	60.1	60.1	62	47.0	2	5	112	0.00	30.104 
09:55	60.4	60.4	60.4	62	47.3	2	5	112	0.00	30.105 
10:00	60.7	60.7	60.7	61	47.2	2	5	90	0.00	30.104 
10:05	60.5	60.5	60.5	60	46.5	3	6	90	0.00	30.104 
10:10	60.2	60.2	60.2	60	46.3	3	11	90	0.00	30.103 
10:15	60.5	60.5	60.5	58	45.6	3	6	112	0.00	30.097 
10:20	61.0	61.0	61.0	59	46.6	3	5	112	0.00	30.096 
10:25	61.8	61.8	61.8	64	49.5	1	3	90	0.00	30.092 
10:30	62.1	62.1	62.1	59	47.6	2	5	90	0.00	30.092 
10:35	62.3	62.3	62.3	59	47.8	3	9	90	0.00	30.093 
10:40	62.1	62.1	62.1	58	47.1	3	8	112	0.00	30.093 
10:45	62.4	62.4	62.4	59	47.9	2	6	112	0.00	30.092 
10:50	63.1	63.1	63.1	59	48.5	2	6	90	0.00	30.091 
10:55	63.2	63.2	63.2	58	48.2	2	7	112	0.00	30.089 
11:00	63.1	63.1	63.1	54	46.2	4	11	90	0.00	30.086 
11:05	62.9	62.9	62.9	55	46.5	3	8	90	0.00	30.083 
11:10	62.9	62.9	62.9	56	47.0	3	12	90	0.00	30.079 
11:15	62.9	62.9	62.9	56	47.0	3	10	90	0.00	30.076 
11:20	63.1	63.1	63.1	57	47.6	3	7	112	0.00	30.074 
11:25	63.2	63.2	63.2	57	47.7	3	9	90	0.00	30.074 
11:30	63.4	63.4	63.4	58	48.4	3	7	90	0.00	30.073 
11:35	63.9	63.9	63.9	57	48.4	2	5	90	0.00	30.073 
11:40	64.2	64.2	64.2	58	49.1	2	6	248	0.00	30.073 
11:45	64.2	64.2	64.2	54	47.2	3	6	112	0.00	30.073 
11:50	64.5	64.5	64.5	56	48.4	2	5	112	0.00	30.071 
11:55	64.7	64.7	64.7	54	47.7	3	7	112	0.00	30.070 
12:00	64.8	64.8	64.8	54	47.8	2	7	112	0.00	30.069 
12:05	64.8	64.8	64.8	54	47.8	3	12	112	0.00	30.072 
12:10	65.2	65.2	65.2	58	50.0	2	5	112	0.00	30.069 
12:15	65.2	65.2	65.2	54	48.1	3	6	112	0.00	30.064 
12:20	65.2	65.2	65.2	55	48.6	4	9	90	0.00	30.062 
12:25	65.2	65.2	65.2	55	48.6	2	6	248	0.00	30.057 
12:30	65.5	65.5	65.5	56	49.4	3	10	90	0.00	30.054 
12:35	65.8	65.8	65.8	53	48.2	3	5	90	0.00	30.054 
12:40	65.5	65.5	65.5	56	49.4	3	9	90	0.00	30.052 
12:45	65.3	65.3	65.3	52	47.2	4	12	112	0.00	30.051 
12:50	65.3	65.3	65.3	55	48.7	3	7	90	0.00	30.047 
12:55	66.0	66.0	66.0	60	51.7	1	5	90	0.00	30.041 
13:00	66.4	66.4	66.4	52	48.2	2	9	112	0.00	30.040 
13:05	66.9	66.9	66.9	52	48.7	2	6	112	0.00	30.040 
13:10	66.6	66.6	66.6	51	47.9	4	7	90	0.00	30.039 
13:15	66.4	66.4	66.4	50	47.2	3	9	90	0.00	30.040 
13:20	66.8	66.8	66.8	50	47.6	3	9	90	0.00	30.038 
13:25	67.1	67.1	67.1	51	48.4	2	5	90	0.00	30.034 
13:30	67.4	67.4	67.4	50	48.1	3	13	112	0.00	30.026 
13:35	67.4	67.4	67.4	51	48.6	3	10	90	0.00	30.026 
13:40	67.3	67.3	67.3	47	46.4	3	6	90	0.00	30.021 
13:45	67.8	67.8	67.8	49	47.9	3	6	112	0.00	30.015 
13:50	67.6	67.6	67.6	50	48.3	3	9	112	0.00	30.012 
13:55	67.6	67.6	67.6	51	48.8	4	10	90	0.00	30.009 
14:00	67.6	67.6	67.6	52	49.3	4	9	90	0.00	30.009 
14:05	67.6	67.6	67.6	51	48.8	3	8	112	0.00	30.011 
14:10	68.1	68.1	68.1	50	48.7	2	4	90	0.00	30.008 
14:15	68.8	68.8	68.8	50	49.4	2	6	90	0.00	30.008 
14:20	68.4	68.4	68.4	49	48.5	3	12	112	0.00	30.010 
14:25	68.4	68.4	68.4	49	48.5	3	7	90	0.00	30.010 
14:30	68.6	68.6	68.6	53	50.8	3	11	112	0.00	30.009 
14:35	68.4	68.4	68.4	50	49.0	3	11	112	0.00	30.008 
14:40	68.8	68.8	68.8	51	49.9	3	12	90	0.00	30.001 
14:45	68.8	68.8	68.8	52	50.4	3	7	112	0.00	29.997 
14:50	68.6	68.6	68.6	49	48.7	3	9	112	0.00	29.997 
14:55	68.9	68.9	68.9	49	48.9	3	9	90	0.00	29.993 
15:00	68.8	68.8	68.8	51	49.9	3	9	90	0.00	29.993 
15:05	68.8	68.8	68.8	50	49.4	3	9	112	0.00	29.994 
15:10	68.6	68.6	68.6	49	48.7	3	10	112	0.00	29.994 
15:15	68.8	68.8	68.8	50	49.4	4	11	90	0.00	29.991 
15:20	68.9	68.9	68.9	51	50.0	2	7	90	0.00	29.985 
15:25	68.9	68.9	68.9	49	48.9	4	14	112	0.00	29.988 
15:30	68.9	68.9	68.9	50	49.5	4	7	112	0.00	29.980 
15:35	69.1	69.1	69.1	48	48.6	3	12	90	0.00	29.979 
15:40	68.8	68.8	68.8	51	49.9	2	7	135	0.00	29.977 
15:45	68.9	68.9	68.9	53	51.1	2	6	68	0.00	29.973 
15:50	68.6	68.6	68.6	48	48.1	2	6	90	0.00	29.973 
15:55	68.3	68.3	68.3	51	49.5	2	5	112	0.00	29.970 
16:00	68.9	68.9	68.9	50	49.5	2	6	112	0.00	29.969 
16:05	69.8	69.8	69.8	52	51.4	2	6	45	0.00	29.969 
16:10	69.9	69.9	69.9	50	50.4	3	7	90	0.00	29.969 
16:15	69.8	69.8	69.8	48	49.2	3	9	112	0.00	29.962 
16:20	69.6	69.6	69.6	47	48.5	2	5	112	0.00	29.955 
16:25	69.4	69.4	69.4	48	48.8	3	12	90	0.00	29.951 
16:30	69.3	69.3	69.3	51	50.4	2	7	112	0.00	29.948 
16:35	69.3	69.3	69.3	50	49.8	3	9	90	0.00	29.948 
16:40	69.3	69.3	69.3	47	48.2	3	9	90	0.00	29.948 
16:45	69.1	69.1	69.1	47	48.0	4	11	112	0.00	29.944 
16:50	68.9	68.9	68.9	46	47.3	3	7	112	0.00	29.940 
16:55	68.9	68.9	68.9	48	48.4	3	11	112	0.00	29.938 
17:00	68.8	68.8	68.8	49	48.8	3	7	112	0.00	29.935 
17:05	68.4	68.4	68.4	49	48.5	4	9	112	0.00	29.936 
17:10	68.1	68.1	68.1	50	48.7	3	11	135	0.00	29.941 
17:15	67.9	67.9	67.9	50	48.6	3	11	112	0.00	29.943 
17:20	67.8	67.8	67.8	49	47.9	3	10	112	0.00	29.947 
17:25	68.1	68.1	68.1	50	48.7	2	6	90	0.00	29.946 
17:30	68.3	68.3	68.3	50	48.9	3	8	112	0.00	29.951 
17:35	68.1	68.1	68.1	50	48.7	3	10	90	0.00	29.951 
17:40	68.1	68.1	68.1	50	48.7	2	7	112	0.00	29.949 
17:45	68.3	68.3	68.3	51	49.5	1	3	90	0.00	29.948 
17:50	68.4	68.4	68.4	50	49.0	2	6	112	0.00	29.949 
17:55	68.1	68.1	68.1	49	48.2	3	9	90	0.00	29.948 
18:00	67.9	67.9	67.9	50	48.6	3	7	112	0.00	29.949 
18:05	67.8	67.8	67.8	50	48.5	3	8	112	0.00	29.945 
18:10	67.8	67.8	67.8	49	47.9	3	7	112	0.00	29.939 
18:15	67.6	67.6	67.6	49	47.8	4	10	90	0.00	29.930 
18:20	67.4	67.4	67.4	50	48.1	3	7	90	0.00	29.918 
18:25	67.3	67.3	67.3	50	48.0	3	9	112	0.00	29.916 
18:30	67.4	67.4	67.4	50	48.1	2	6	112	0.00	29.927 
18:35	67.4	67.4	67.4	50	48.1	3	9	112	0.00	29.928 
18:40	67.4	67.4	67.4	50	48.1	1	4	112	0.00	29.926 
18:45	67.4	67.4	67.4	50	48.1	2	5	112	0.00	29.927 
18:50	67.4	67.4	67.4	50	48.1	1	4	112	0.00	29.923 
18:55	67.3	67.3	67.3	51	48.5	1	7	90	0.00	29.924 
19:00	67.1	67.1	67.1	52	48.9	2	4	112	0.00	29.923 
19:05	67.1	67.1	67.1	52	48.9	1	4	112	0.00	29.920 
19:10	66.9	66.9	66.9	53	49.2	1	4	112	0.00	29.921 
19:15	66.6	66.6	66.6	54	49.4	1	3	112	0.00	29.922 
19:20	66.4	66.4	66.4	54	49.2	1	4	112	0.00	29.926 
19:25	66.1	66.1	66.1	54	49.0	1	3	112	0.00	29.929 
19:30	66.0	66.0	66.0	55	49.4	1	4	112	0.00	29.927 
19:35	65.6	65.6	65.6	56	49.5	0	2	90	0.00	29.926 
19:40	65.2	65.2	65.2	56	49.1	0	3	90	0.00	29.929 
19:45	64.8	64.8	64.8	57	49.2	0	1	112	0.00	29.935 
19:50	64.5	64.5	64.5	58	49.4	0	1	112	0.00	29.933 
19:55	64.2	64.2	64.2	59	49.6	0	1	112	0.00	29.930 
20:00	63.7	63.7	63.7	60	49.5	0	1	112	0.00	29.931 
20:05	63.2	63.2	63.2	61	49.5	0	0	---	0.00	29.930 
20:10	62.7	62.7	62.7	62	49.5	0	0	---	0.00	29.928 
20:15	62.3	62.3	62.3	63	49.5	0	0	---	0.00	29.940 
20:20	61.6	61.6	61.6	64	49.3	0	0	---	0.00	29.942 
20:25	61.2	61.2	61.2	65	49.3	0	0	---	0.00	29.946 
20:30	60.7	60.7	60.7	66	49.3	0	0	---	0.00	29.946 
20:35	60.4	60.4	60.4	67	49.4	0	1	112	0.00	29.942 
20:40	60.2	60.2	60.2	68	49.6	0	1	112	0.00	29.947 
20:45	60.2	60.2	60.2	68	49.6	0	1	112	0.00	29.945 
20:50	60.4	60.4	60.4	67	49.4	0	2	112	0.00	29.946 
20:55	60.7	60.7	60.7	66	49.3	0	2	112	0.00	29.944 
21:00	60.9	60.9	60.9	66	49.5	0	1	112	0.00	29.945 
21:05	60.7	60.7	60.7	66	49.3	0	0	---	0.00	29.943 
21:10	60.5	60.5	60.5	67	49.5	0	0	---	0.00	29.944 
21:15	60.4	60.4	60.4	67	49.4	0	0	---	0.00	29.944 
21:20	60.1	60.1	60.1	68	49.5	0	0	---	0.00	29.948 
21:25	59.9	59.9	59.9	68	49.3	0	0	---	0.00	29.953 
21:30	59.8	59.8	59.8	69	49.6	0	0	---	0.00	29.947 
21:35	59.6	59.6	59.6	69	49.4	0	1	112	0.00	29.948 
21:40	59.6	59.6	59.6	69	49.4	0	1	112	0.00	29.945 
21:45	59.6	59.6	59.6	69	49.4	0	2	112	0.00	29.942 
21:50	59.6	59.6	59.6	69	49.4	0	1	112	0.00	29.943 
21:55	59.8	59.8	59.8	69	49.6	0	1	112	0.00	29.945 
22:00	59.6	59.6	59.6	69	49.4	0	1	112	0.00	29.941 
22:05	59.6	59.6	59.6	69	49.4	0	1	112	0.00	29.937 
22:10	59.8	59.8	59.8	68	49.2	0	2	112	0.00	29.933 
22:15	59.9	59.9	59.9	68	49.3	0	3	112	0.00	29.934 
22:20	59.9	59.9	59.9	68	49.3	0	1	112	0.00	29.930 
22:25	59.9	59.9	59.9	68	49.3	0	1	112	0.00	29.927 
22:30	59.9	59.9	59.9	69	49.7	0	1	112	0.00	29.926 
22:35	59.8	59.8	59.8	68	49.2	0	1	112	0.00	29.924 
22:40	59.9	59.9	59.9	69	49.7	0	2	112	0.00	29.922 
22:45	59.8	59.8	59.8	69	49.6	0	1	112	0.00	29.919 
22:50	59.8	59.8	59.8	69	49.6	0	1	112	0.00	29.916 
22:55	59.8	59.8	59.8	70	50.0	0	2	112	0.00	29.910 
23:00	59.6	59.6	59.6	70	49.8	0	2	112	0.00	29.909 
23:05	59.6	59.6	59.6	69	49.4	0	2	112	0.00	29.907 
23:10	59.6	59.6	59.6	69	49.4	0	2	135	0.00	29.905 
23:15	59.6	59.6	59.6	69	49.4	0	2	135	0.00	29.906 
23:20	59.6	59.6	59.6	69	49.4	0	3	135	0.00	29.905 
23:25	59.6	59.6	59.6	69	49.4	0	2	135	0.00	29.902 
23:30	59.6	59.6	59.6	69	49.4	0	1	135	0.00	29.897 
23:35	59.6	59.6	59.6	69	49.4	0	2	135	0.00	29.892 
23:40	59.8	59.8	59.8	68	49.2	0	2	135	0.00	29.891 
23:45	59.8	59.8	59.8	68	49.2	0	2	135	0.00	29.890 
23:50	59.8	59.8	59.8	68	49.2	1	3	135	0.00	29.889 
23:55	59.8	59.8	59.8	68	49.2	1	2	135	0.00	29.889 

CoCoRaHS
IN-AL-39
A2 Web Hosting
Creative Commons License
GoDaddy
Look for:

loaded 2017-12-11 14:16:10 • last modified 2010-11-18 10:43:29
Privacy PolicyDisclaimer
• wx.awcolley.com is powered by PmWiki v.2002016 •
• all content (unless otherwise noted) © 2017 A W Colley